createdAt,value
2019-03-08T00:00:03.131Z,0
2019-03-08T00:01:03.065Z,0
2019-03-08T00:02:03.783Z,0
2019-03-08T00:03:03.283Z,0
2019-03-08T00:04:03.603Z,0
2019-03-08T00:05:03.832Z,0
2019-03-08T00:06:03.727Z,0
2019-03-08T00:07:03.736Z,0
2019-03-08T00:08:03.488Z,0
2019-03-08T00:09:03.573Z,0
2019-03-08T00:10:03.611Z,1.1
2019-03-08T00:11:03.355Z,2.5
2019-03-08T00:12:03.246Z,2.5
2019-03-08T00:13:07.065Z,1.1
2019-03-08T00:14:03.628Z,2.5
2019-03-08T00:15:03.345Z,2.5
2019-03-08T00:16:03.572Z,2.5
2019-03-08T00:17:03.459Z,2.5
2019-03-08T00:18:03.615Z,2.5
2019-03-08T00:19:03.178Z,2.5
2019-03-08T00:20:03.203Z,3.6
2019-03-08T00:21:03.353Z,3.6
2019-03-08T00:22:03.252Z,3.6
2019-03-08T00:23:03.301Z,3.6
2019-03-08T00:24:03.530Z,3.6
2019-03-08T00:25:03.334Z,2.5
2019-03-08T00:26:04.720Z,2.5
2019-03-08T00:27:03.539Z,2.5
2019-03-08T00:28:03.205Z,3.6
2019-03-08T00:29:03.966Z,2.5
2019-03-08T00:30:03.488Z,2.5
2019-03-08T00:31:03.012Z,1.1
2019-03-08T00:32:03.108Z,1.1
2019-03-08T00:33:03.226Z,0
2019-03-08T00:34:03.517Z,1.1
2019-03-08T00:35:03.688Z,1.1
2019-03-08T00:36:02.730Z,1.1
2019-03-08T00:37:03.195Z,1.1
2019-03-08T00:38:03.285Z,1.1
2019-03-08T00:39:02.952Z,1.1
2019-03-08T00:40:03.419Z,2.5
2019-03-08T00:41:03.135Z,2.5
2019-03-08T00:42:03.043Z,1.1
2019-03-08T00:43:03.101Z,0
2019-03-08T00:44:03.069Z,2.5
2019-03-08T00:45:03.228Z,1.1
2019-03-08T00:46:03.158Z,1.1
2019-03-08T00:47:03.110Z,1.1
2019-03-08T00:48:02.994Z,1.1
2019-03-08T00:49:03.196Z,1.1
2019-03-08T00:50:02.925Z,1.1
2019-03-08T00:51:03.562Z,1.1
2019-03-08T00:52:03.427Z,1.1
2019-03-08T00:53:03.202Z,2.5
2019-03-08T00:54:03.061Z,2.5
2019-03-08T00:55:03.978Z,3.6
2019-03-08T00:56:04.252Z,2.5
2019-03-08T00:57:02.968Z,2.5
2019-03-08T00:58:03.459Z,2.5
2019-03-08T00:59:04.031Z,2.5
2019-03-08T01:00:03.955Z,2.5
2019-03-08T01:01:03.900Z,2.5
2019-03-08T01:02:02.949Z,2.5
2019-03-08T01:03:03.213Z,2.5
2019-03-08T01:04:03.234Z,2.5
2019-03-08T01:05:03.116Z,2.5
2019-03-08T01:06:03.915Z,2.5
2019-03-08T01:07:02.966Z,2.5
2019-03-08T01:08:03.794Z,2.5
2019-03-08T01:09:03.468Z,2.5
2019-03-08T01:10:03.799Z,2.5
2019-03-08T01:11:03.196Z,2.5
2019-03-08T01:12:02.992Z,2.5
2019-03-08T01:13:03.146Z,1.1
2019-03-08T01:14:03.727Z,2.5
2019-03-08T01:15:03.680Z,1.1
2019-03-08T01:16:03.143Z,1.1
2019-03-08T01:17:03.598Z,0
2019-03-08T01:18:03.552Z,0
2019-03-08T01:19:03.471Z,0
2019-03-08T01:20:03.865Z,0
2019-03-08T01:21:03.668Z,0
2019-03-08T01:22:03.970Z,1.1
2019-03-08T01:23:03.817Z,0
2019-03-08T01:24:03.715Z,0
2019-03-08T01:25:03.686Z,0
2019-03-08T01:26:03.172Z,0
2019-03-08T01:27:03.071Z,1.1
2019-03-08T01:28:03.746Z,0
2019-03-08T01:29:03.460Z,1.1
2019-03-08T01:30:03.545Z,1.1
2019-03-08T01:31:03.542Z,3.6
2019-03-08T01:32:05.859Z,1.1
2019-03-08T01:33:04.779Z,3.6
2019-03-08T01:34:03.607Z,3.6
2019-03-08T01:35:03.137Z,1.1
2019-03-08T01:36:03.538Z,2.5
2019-03-08T01:37:03.669Z,2.5
2019-03-08T01:38:03.648Z,3.6
2019-03-08T01:39:03.607Z,3.6
2019-03-08T01:40:03.385Z,2.5
2019-03-08T01:41:03.501Z,2.5
2019-03-08T01:42:03.693Z,5
2019-03-08T01:43:03.326Z,3.6
2019-03-08T01:44:03.494Z,2.5
2019-03-08T01:45:04.149Z,2.5
2019-03-08T01:46:03.621Z,1.1
2019-03-08T01:47:03.236Z,1.1
2019-03-08T01:48:03.418Z,2.5
2019-03-08T01:49:04.750Z,3.6
2019-03-08T01:50:03.926Z,2.5
2019-03-08T01:51:03.244Z,2.5
2019-03-08T01:52:03.011Z,1.1
2019-03-08T01:53:02.997Z,1.1
2019-03-08T01:54:03.167Z,1.1
2019-03-08T01:55:03.336Z,1.1
2019-03-08T01:56:03.642Z,3.6
2019-03-08T01:57:03.360Z,1.1
2019-03-08T01:58:03.983Z,1.1
2019-03-08T01:59:03.731Z,0
2019-03-08T02:00:03.807Z,3.6
2019-03-08T02:01:03.533Z,3.6
2019-03-08T02:02:02.527Z,3.6
2019-03-08T02:03:03.972Z,3.6
2019-03-08T02:04:02.947Z,2.5
2019-03-08T02:05:04.778Z,3.6
2019-03-08T02:06:03.829Z,2.5
2019-03-08T02:07:03.472Z,2.5
2019-03-08T02:08:03.494Z,3.6
2019-03-08T02:09:03.753Z,3.6
2019-03-08T02:10:03.196Z,3.6
2019-03-08T02:11:03.556Z,3.6
2019-03-08T02:12:03.339Z,2.5
2019-03-08T02:13:05.133Z,3.6
2019-03-08T02:14:03.370Z,2.5
2019-03-08T02:15:03.325Z,1.1
2019-03-08T02:16:03.112Z,3.6
2019-03-08T02:17:03.764Z,3.6
2019-03-08T02:18:03.962Z,3.6
2019-03-08T02:19:03.046Z,1.1
2019-03-08T02:20:03.089Z,1.1
2019-03-08T02:21:08.565Z,2.5
2019-03-08T02:22:03.196Z,0
2019-03-08T02:23:03.211Z,0
2019-03-08T02:24:02.999Z,1.1
2019-03-08T02:25:02.967Z,1.1
2019-03-08T02:26:03.098Z,1.1
2019-03-08T02:27:03.947Z,2.5
2019-03-08T02:28:03.082Z,1.1
2019-03-08T02:29:04.573Z,1.1
2019-03-08T02:30:03.084Z,2.5
2019-03-08T02:31:03.595Z,3.6
2019-03-08T02:32:03.078Z,2.5
2019-03-08T02:33:03.880Z,2.5
2019-03-08T02:34:03.175Z,2.5
2019-03-08T02:35:03.274Z,5
2019-03-08T02:36:03.316Z,2.5
2019-03-08T02:37:05.222Z,3.6
2019-03-08T02:38:03.769Z,3.6
2019-03-08T02:39:03.386Z,3.6
2019-03-08T02:40:03.854Z,3.6
2019-03-08T02:41:03.028Z,3.6
2019-03-08T02:42:03.520Z,3.6
2019-03-08T02:43:03.739Z,3.6
2019-03-08T02:44:03.714Z,3.6
2019-03-08T02:45:04.795Z,3.6
2019-03-08T02:46:03.433Z,2.5
2019-03-08T02:47:02.992Z,2.5
2019-03-08T02:48:03.369Z,5
2019-03-08T02:49:03.628Z,5
2019-03-08T02:50:03.585Z,5
2019-03-08T02:51:03.476Z,5
2019-03-08T02:52:03.776Z,5
2019-03-08T02:53:04.960Z,3.6
2019-03-08T02:54:03.520Z,5
2019-03-08T02:55:03.662Z,5
2019-03-08T02:56:03.221Z,5
2019-03-08T02:57:03.423Z,5
2019-03-08T02:58:03.293Z,5
2019-03-08T02:59:03.312Z,5
2019-03-08T03:00:03.317Z,2.5
2019-03-08T03:01:04.325Z,3.6
2019-03-08T03:02:03.149Z,3.6
2019-03-08T03:03:03.395Z,3.6
2019-03-08T03:04:03.012Z,3.6
2019-03-08T03:05:03.062Z,3.6
2019-03-08T03:06:03.008Z,3.6
2019-03-08T03:07:03.092Z,3.6
2019-03-08T03:08:02.810Z,3.6
2019-03-08T03:09:03.780Z,3.6
2019-03-08T03:10:03.708Z,5
2019-03-08T03:11:03.725Z,5
2019-03-08T03:12:03.738Z,5
2019-03-08T03:13:03.694Z,5
2019-03-08T03:14:03.820Z,3.6
2019-03-08T03:15:03.718Z,3.6
2019-03-08T03:16:03.678Z,3.6
2019-03-08T03:17:04.305Z,6.1
2019-03-08T03:18:03.764Z,6.1
2019-03-08T03:19:03.405Z,5
2019-03-08T03:20:03.732Z,5
2019-03-08T03:21:03.140Z,5
2019-03-08T03:22:03.256Z,3.6
2019-03-08T03:23:03.387Z,3.6
2019-03-08T03:24:03.200Z,5
2019-03-08T03:25:04.629Z,7.2
2019-03-08T03:26:03.044Z,6.1
2019-03-08T03:27:03.204Z,3.6
2019-03-08T03:28:03.026Z,7.2
2019-03-08T03:29:03.355Z,6.1
2019-03-08T03:30:03.372Z,6.1
2019-03-08T03:31:03.430Z,6.1
2019-03-08T03:32:03.141Z,7.2
2019-03-08T03:33:04.271Z,6.1
2019-03-08T03:34:03.183Z,5
2019-03-08T03:35:03.797Z,3.6
2019-03-08T03:36:03.057Z,3.6
2019-03-08T03:37:04.016Z,5
2019-03-08T03:38:03.814Z,3.6
2019-03-08T03:39:03.913Z,7.2
2019-03-08T03:40:03.120Z,5
2019-03-08T03:41:04.373Z,3.6
2019-03-08T03:42:03.163Z,3.6
2019-03-08T03:43:02.860Z,2.5
2019-03-08T03:44:03.714Z,1.1
2019-03-08T03:45:03.963Z,3.6
2019-03-08T03:46:03.821Z,3.6
2019-03-08T03:47:03.887Z,2.5
2019-03-08T03:48:03.689Z,2.5
2019-03-08T03:49:04.634Z,2.5
2019-03-08T03:50:03.776Z,2.5
2019-03-08T03:51:03.563Z,2.5
2019-03-08T03:52:03.415Z,2.5
2019-03-08T03:53:03.321Z,2.5
2019-03-08T03:54:03.544Z,5
2019-03-08T03:55:03.397Z,2.5
2019-03-08T03:56:03.479Z,3.6
2019-03-08T03:57:04.394Z,5
2019-03-08T03:58:03.034Z,5
2019-03-08T03:59:03.074Z,5
2019-03-08T04:00:03.514Z,5
2019-03-08T04:01:03.136Z,3.6
2019-03-08T04:02:03.004Z,3.6
2019-03-08T04:03:03.390Z,3.6
2019-03-08T04:04:03.468Z,5
2019-03-08T04:05:04.448Z,6.1
2019-03-08T04:06:03.330Z,5
2019-03-08T04:07:03.054Z,5
2019-03-08T04:08:03.141Z,5
2019-03-08T04:09:03.124Z,5
2019-03-08T04:10:03.142Z,3.6
2019-03-08T04:11:03.106Z,3.6
2019-03-08T04:12:03.424Z,5
2019-03-08T04:13:04.014Z,5
2019-03-08T04:14:03.052Z,3.6
2019-03-08T04:15:03.180Z,5
2019-03-08T04:16:03.918Z,5
2019-03-08T04:17:02.785Z,5
2019-03-08T04:18:03.876Z,5
2019-03-08T04:19:03.917Z,5
2019-03-08T04:20:03.833Z,6.1
2019-03-08T04:21:04.343Z,6.1
2019-03-08T04:22:03.825Z,6.1
2019-03-08T04:23:03.673Z,6.1
2019-03-08T04:24:03.927Z,3.6
2019-03-08T04:25:03.863Z,5
2019-03-08T04:26:03.729Z,5
2019-03-08T04:27:03.599Z,3.6
2019-03-08T04:28:03.474Z,5
2019-03-08T04:29:04.604Z,6.1
2019-03-08T04:30:03.516Z,5
2019-03-08T04:31:03.495Z,5
2019-03-08T04:32:03.485Z,3.6
2019-03-08T04:33:03.414Z,3.6
2019-03-08T04:34:04.423Z,3.6
2019-03-08T04:35:03.525Z,3.6
2019-03-08T04:36:03.349Z,3.6
2019-03-08T04:37:04.436Z,3.6
2019-03-08T04:38:03.374Z,3.6
2019-03-08T04:39:03.461Z,3.6
2019-03-08T04:40:04.049Z,3.6
2019-03-08T04:41:02.828Z,3.6
2019-03-08T04:42:02.897Z,6.1
2019-03-08T04:43:03.308Z,3.6
2019-03-08T04:44:03.962Z,5
2019-03-08T04:45:04.422Z,5
2019-03-08T04:46:04.058Z,5
2019-03-08T04:47:03.722Z,5
2019-03-08T04:48:03.729Z,6.1
2019-03-08T04:49:03.531Z,5
2019-03-08T04:50:03.642Z,5
2019-03-08T04:51:03.715Z,6.1
2019-03-08T04:52:03.683Z,6.1
2019-03-08T04:53:04.650Z,5
2019-03-08T04:54:03.746Z,6.1
2019-03-08T04:55:03.666Z,6.1
2019-03-08T04:56:03.782Z,6.1
2019-03-08T04:57:03.434Z,6.1
2019-03-08T04:58:03.424Z,6.1
2019-03-08T04:59:03.528Z,7.2
2019-03-08T05:00:03.548Z,6.1
2019-03-08T05:01:04.188Z,7.2
2019-03-08T05:02:03.399Z,7.2
2019-03-08T05:03:03.335Z,7.2
2019-03-08T05:04:03.215Z,7.2
2019-03-08T05:05:03.283Z,7.2
2019-03-08T05:06:03.198Z,7.2
2019-03-08T05:07:03.363Z,7.2
2019-03-08T05:08:03.031Z,7.2
2019-03-08T05:09:04.054Z,6.1
2019-03-08T05:10:03.190Z,6.1
2019-03-08T05:11:03.760Z,6.1
2019-03-08T05:12:03.079Z,6.1
2019-03-08T05:13:03.762Z,6.1
2019-03-08T05:14:03.790Z,6.1
2019-03-08T05:15:03.760Z,6.1
2019-03-08T05:16:03.984Z,6.1
2019-03-08T05:17:05.097Z,7.2
2019-03-08T05:18:03.503Z,5
2019-03-08T05:19:03.823Z,6.1
2019-03-08T05:20:03.719Z,5
2019-03-08T05:21:03.294Z,6.1
2019-03-08T05:22:03.822Z,6.1
2019-03-08T05:23:03.760Z,7.2
2019-03-08T05:24:03.250Z,6.1
2019-03-08T05:25:04.685Z,6.1
2019-03-08T05:26:03.581Z,5
2019-03-08T05:27:03.838Z,6.1
2019-03-08T05:28:05.328Z,6.1
2019-03-08T05:29:03.612Z,3.6
2019-03-08T05:30:03.727Z,3.6
2019-03-08T05:31:03.292Z,3.6
2019-03-08T05:32:03.447Z,5
2019-03-08T05:33:05.006Z,5
2019-03-08T05:34:03.262Z,5
2019-03-08T05:35:03.211Z,6.1
2019-03-08T05:36:03.426Z,6.1
2019-03-08T05:37:03.081Z,6.1
2019-03-08T05:38:03.489Z,6.1
2019-03-08T05:39:03.351Z,6.1
2019-03-08T05:40:03.377Z,6.1
2019-03-08T05:41:05.199Z,5
2019-03-08T05:42:02.960Z,5
2019-03-08T05:43:04.484Z,6.1
2019-03-08T05:44:03.831Z,6.1
2019-03-08T05:45:03.744Z,6.1
2019-03-08T05:46:02.749Z,5
2019-03-08T05:47:03.091Z,3.6
2019-03-08T05:48:03.388Z,3.6
2019-03-08T05:49:05.063Z,8.6
2019-03-08T05:50:03.040Z,6.1
2019-03-08T05:51:03.220Z,6.1
2019-03-08T05:52:03.002Z,7.2
2019-03-08T05:53:03.899Z,6.1
2019-03-08T05:54:03.960Z,3.6
2019-03-08T05:55:03.932Z,6.1
2019-03-08T05:56:03.673Z,3.6
2019-03-08T05:57:03.860Z,3.6
2019-03-08T05:58:03.556Z,5
2019-03-08T05:59:03.701Z,5
2019-03-08T06:00:03.668Z,5
2019-03-08T06:01:03.464Z,6.1
2019-03-08T06:02:03.849Z,8.6
2019-03-08T06:03:03.942Z,6.1
2019-03-08T06:04:04.006Z,5
2019-03-08T06:05:02.243Z,7.2
2019-03-08T06:06:03.181Z,5
2019-03-08T06:07:03.973Z,7.2
2019-03-08T06:08:03.799Z,6.1
2019-03-08T06:09:03.364Z,3.6
2019-03-08T06:10:03.604Z,3.6
2019-03-08T06:11:03.543Z,3.6
2019-03-08T06:12:04.261Z,5
2019-03-08T06:13:03.128Z,7.2
2019-03-08T06:14:03.346Z,5
2019-03-08T06:15:03.245Z,5
2019-03-08T06:16:03.309Z,6.1
2019-03-08T06:17:03.131Z,6.1
2019-03-08T06:18:03.245Z,6.1
2019-03-08T06:19:03.169Z,6.1
2019-03-08T06:20:04.711Z,5
2019-03-08T06:21:03.160Z,6.1
2019-03-08T06:22:02.978Z,11.2
2019-03-08T06:23:05.161Z,11.2
2019-03-08T06:24:03.887Z,7.2
2019-03-08T06:25:03.956Z,7.2
2019-03-08T06:26:03.037Z,7.2
2019-03-08T06:27:03.213Z,6.1
2019-03-08T06:28:03.231Z,8.6
2019-03-08T06:29:03.939Z,5
2019-03-08T06:30:03.767Z,6.1
2019-03-08T06:31:03.762Z,12.2
2019-03-08T06:32:03.659Z,11.2
2019-03-08T06:33:03.651Z,9.7
2019-03-08T06:34:03.431Z,7.2
2019-03-08T06:35:03.717Z,12.2
2019-03-08T06:36:03.582Z,9.7
2019-03-08T06:37:03.398Z,7.2
2019-03-08T06:38:03.566Z,8.6
2019-03-08T06:39:03.423Z,9.7
2019-03-08T06:40:03.584Z,7.2
2019-03-08T06:41:03.464Z,8.6
2019-03-08T06:42:03.422Z,8.6
2019-03-08T06:43:03.987Z,8.6
2019-03-08T06:44:03.065Z,7.2
2019-03-08T06:45:03.271Z,8.6
2019-03-08T06:46:03.402Z,11.2
2019-03-08T06:47:03.066Z,7.2
2019-03-08T06:48:03.098Z,9.7
2019-03-08T06:49:03.553Z,8.6
2019-03-08T06:50:03.096Z,12.2
2019-03-08T06:51:04.236Z,13.3
2019-03-08T06:52:03.901Z,9.7
2019-03-08T06:53:02.965Z,14.8
2019-03-08T06:54:03.632Z,8.6
2019-03-08T06:55:02.980Z,17.3
2019-03-08T06:56:02.999Z,11.2
2019-03-08T06:57:03.971Z,11.2
2019-03-08T06:58:03.971Z,3.6
2019-03-08T06:59:04.086Z,8.6
2019-03-08T07:00:03.392Z,13.3
2019-03-08T07:01:03.633Z,13.3
2019-03-08T07:02:03.799Z,13.3
2019-03-08T07:03:03.385Z,13.3
2019-03-08T07:04:03.535Z,13.3
2019-03-08T07:05:03.736Z,13.3
2019-03-08T07:06:03.544Z,13.3
2019-03-08T07:07:04.829Z,13.3
2019-03-08T07:08:03.355Z,13.3
2019-03-08T07:09:03.350Z,15.8
2019-03-08T07:10:03.392Z,11.2
2019-03-08T07:11:03.568Z,23.4
2019-03-08T07:12:03.525Z,15.8
2019-03-08T07:13:04.383Z,11.2
2019-03-08T07:14:03.511Z,9.7
2019-03-08T07:15:04.686Z,12.2
2019-03-08T07:16:16.212Z,15.8
2019-03-08T07:17:03.311Z,15.8
2019-03-08T07:18:13.491Z,17.3
2019-03-08T07:19:03.223Z,7.2
2019-03-08T07:20:03.665Z,8.6
2019-03-08T07:21:03.737Z,8.6
2019-03-08T07:22:03.029Z,13.3
2019-03-08T07:23:03.950Z,15.8
2019-03-08T07:24:02.995Z,15.8
2019-03-08T07:25:03.481Z,14.8
2019-03-08T07:26:03.327Z,9.7
2019-03-08T07:27:03.202Z,13.3
2019-03-08T07:28:03.551Z,13.3
2019-03-08T07:29:03.323Z,15.8
2019-03-08T07:30:03.498Z,19.4
2019-03-08T07:31:03.155Z,17.3
2019-03-08T07:32:03.009Z,17.3
2019-03-08T07:33:03.212Z,18.4
2019-03-08T07:34:03.014Z,14.8
2019-03-08T07:35:03.448Z,14.8
2019-03-08T07:36:02.848Z,15.8
2019-03-08T07:37:03.065Z,15.8
2019-03-08T07:38:03.840Z,20.9
2019-03-08T07:39:02.939Z,14.8
2019-03-08T07:40:04.092Z,14.8
2019-03-08T07:41:03.636Z,14.8
2019-03-08T07:42:04.044Z,9.7
2019-03-08T07:43:03.458Z,13.3
2019-03-08T07:44:03.863Z,12.2
2019-03-08T07:45:03.702Z,7.2
2019-03-08T07:46:03.558Z,13.3
2019-03-08T07:47:03.421Z,12.2
2019-03-08T07:48:03.632Z,11.2
2019-03-08T07:49:03.610Z,11.2
2019-03-08T07:50:03.638Z,17.3
2019-03-08T07:51:03.669Z,13.3
2019-03-08T07:52:03.400Z,14.8
2019-03-08T07:53:03.358Z,13.3
2019-03-08T07:54:03.882Z,12.2
2019-03-08T07:55:03.630Z,12.2
2019-03-08T07:56:03.424Z,15.8
2019-03-08T07:57:03.552Z,15.8
2019-03-08T07:58:03.364Z,18.4
2019-03-08T07:59:03.617Z,13.3
2019-03-08T08:00:03.294Z,14.8
2019-03-08T08:01:03.585Z,15.8
2019-03-08T08:02:03.350Z,13.3
2019-03-08T08:03:06.367Z,17.3
2019-03-08T08:04:03.236Z,18.4
2019-03-08T08:05:03.738Z,13.3
2019-03-08T08:06:03.108Z,11.2
2019-03-08T08:07:03.390Z,13.3
2019-03-08T08:08:02.865Z,17.3
2019-03-08T08:09:03.164Z,14.8
2019-03-08T08:10:03.143Z,20.9
2019-03-08T08:11:04.323Z,19.4
2019-03-08T08:12:03.073Z,18.4
2019-03-08T08:13:03.961Z,18.4
2019-03-08T08:14:03.041Z,14.8
2019-03-08T08:15:03.156Z,17.3
2019-03-08T08:16:03.869Z,14.8
2019-03-08T08:17:03.593Z,15.8
2019-03-08T08:18:04.000Z,14.8
2019-03-08T08:19:04.849Z,15.8
2019-03-08T08:20:03.068Z,19.4
2019-03-08T08:21:03.696Z,14.8
2019-03-08T08:22:03.540Z,20.9
2019-03-08T08:23:03.404Z,20.9
2019-03-08T08:24:03.607Z,14.8
2019-03-08T08:25:03.753Z,13.3
2019-03-08T08:26:03.983Z,13.3
2019-03-08T08:27:04.585Z,12.2
2019-03-08T08:28:03.261Z,11.2
2019-03-08T08:29:03.449Z,18.4
2019-03-08T08:30:03.940Z,20.9
2019-03-08T08:31:03.611Z,20.9
2019-03-08T08:32:03.578Z,18.4
2019-03-08T08:33:03.550Z,19.4
2019-03-08T08:34:03.539Z,15.8
2019-03-08T08:35:04.433Z,15.8
2019-03-08T08:36:03.404Z,15.8
2019-03-08T08:37:03.021Z,17.3
2019-03-08T08:38:03.647Z,17.3
2019-03-08T08:39:03.472Z,17.3
2019-03-08T08:40:03.302Z,22
2019-03-08T08:41:03.433Z,20.9
2019-03-08T08:42:03.497Z,17.3
2019-03-08T08:43:04.344Z,20.9
2019-03-08T08:44:03.472Z,18.4
2019-03-08T08:45:03.239Z,18.4
2019-03-08T08:46:03.503Z,19.4
2019-03-08T08:47:03.293Z,24.5
2019-03-08T08:48:03.234Z,27
2019-03-08T08:49:03.055Z,23.4
2019-03-08T08:50:03.072Z,24.5
2019-03-08T08:51:04.392Z,19.4
2019-03-08T08:52:03.373Z,18.4
2019-03-08T08:53:03.282Z,18.4
2019-03-08T08:54:02.997Z,18.4
2019-03-08T08:55:03.254Z,23.4
2019-03-08T08:56:04.090Z,22
2019-03-08T08:57:02.980Z,20.9
2019-03-08T08:58:02.992Z,23.4
2019-03-08T08:59:04.394Z,23.4
2019-03-08T09:00:03.090Z,20.9
2019-03-08T09:01:02.718Z,20.9
2019-03-08T09:02:03.165Z,20.9
2019-03-08T09:03:03.110Z,20.9
2019-03-08T09:04:03.165Z,20.9
2019-03-08T09:05:03.861Z,20.9
2019-03-08T09:06:02.913Z,20.9
2019-03-08T09:07:04.909Z,20.9
2019-03-08T09:08:02.890Z,20.9
2019-03-08T09:09:03.886Z,30.6
2019-03-08T09:10:03.807Z,29.5
2019-03-08T09:11:03.455Z,27
2019-03-08T09:12:03.640Z,29.5
2019-03-08T09:13:03.595Z,27
2019-03-08T09:14:03.875Z,29.5
2019-03-08T09:15:04.756Z,20.9
2019-03-08T09:16:03.283Z,19.4
2019-03-08T09:17:03.725Z,30.6
2019-03-08T09:18:03.412Z,20.9
2019-03-08T09:19:03.331Z,23.4
2019-03-08T09:20:03.094Z,20.9
2019-03-08T09:21:03.774Z,20.9
2019-03-08T09:22:03.316Z,22
2019-03-08T09:23:04.640Z,24.5
2019-03-08T09:24:03.534Z,27
2019-03-08T09:25:03.441Z,22
2019-03-08T09:26:03.043Z,22
2019-03-08T09:27:03.315Z,25.6
2019-03-08T09:28:03.461Z,19.4
2019-03-08T09:29:03.269Z,29.5
2019-03-08T09:30:03.461Z,24.5
2019-03-08T09:31:04.541Z,27
2019-03-08T09:32:03.401Z,34.2
2019-03-08T09:33:03.764Z,34.2
2019-03-08T09:34:03.104Z,28.1
2019-03-08T09:35:03.129Z,27
2019-03-08T09:36:03.115Z,33.1
2019-03-08T09:37:03.169Z,31.7
2019-03-08T09:38:03.598Z,27
2019-03-08T09:39:04.496Z,27
2019-03-08T09:40:03.515Z,27
2019-03-08T09:41:03.150Z,24.5
2019-03-08T09:42:03.062Z,22
2019-03-08T09:43:03.739Z,27
2019-03-08T09:44:03.122Z,29.5
2019-03-08T09:45:03.213Z,27
2019-03-08T09:46:03.674Z,23.4
2019-03-08T09:47:05.344Z,24.5
2019-03-08T09:48:03.839Z,23.4
2019-03-08T09:49:02.914Z,17.3
2019-03-08T09:50:03.703Z,18.4
2019-03-08T09:51:03.766Z,20.9
2019-03-08T09:52:03.690Z,25.6
2019-03-08T09:53:03.722Z,28.1
2019-03-08T09:54:03.539Z,22
2019-03-08T09:55:05.103Z,20.9
2019-03-08T09:56:03.034Z,25.6
2019-03-08T09:57:03.648Z,23.4
2019-03-08T09:58:03.565Z,25.6
2019-03-08T09:59:03.112Z,27
2019-03-08T10:00:03.875Z,25.6
2019-03-08T10:01:03.522Z,31.7
2019-03-08T10:02:03.530Z,29.5
2019-03-08T10:03:05.041Z,27
2019-03-08T10:04:03.667Z,27
2019-03-08T10:05:03.557Z,27
2019-03-08T10:06:03.529Z,27
2019-03-08T10:07:03.246Z,23.4
2019-03-08T10:08:03.607Z,27
2019-03-08T10:09:03.068Z,25.6
2019-03-08T10:10:03.649Z,23.4
2019-03-08T10:11:04.531Z,28.1
2019-03-08T10:12:03.257Z,23.4
2019-03-08T10:13:03.208Z,24.5
2019-03-08T10:14:03.106Z,23.4
2019-03-08T10:15:03.402Z,34.2
2019-03-08T10:16:03.213Z,23.4
2019-03-08T10:17:03.378Z,20.9
2019-03-08T10:18:03.756Z,30.6
2019-03-08T10:19:04.489Z,28.1
2019-03-08T10:20:03.063Z,20.9
2019-03-08T10:21:03.712Z,18.4
2019-03-08T10:22:03.903Z,19.4
2019-03-08T10:23:02.825Z,27
2019-03-08T10:24:04.013Z,28.1
2019-03-08T10:25:03.866Z,28.1
2019-03-08T10:26:03.838Z,25.6
2019-03-08T10:27:04.401Z,31.7
2019-03-08T10:28:03.837Z,33.1
2019-03-08T10:29:04.100Z,29.5
2019-03-08T10:30:03.099Z,23.4
2019-03-08T10:31:03.847Z,25.6
2019-03-08T10:32:03.974Z,30.6
2019-03-08T10:33:03.596Z,31.7
2019-03-08T10:34:03.093Z,27
2019-03-08T10:35:04.960Z,27
2019-03-08T10:36:03.728Z,31.7
2019-03-08T10:37:03.714Z,25.6
2019-03-08T10:38:03.713Z,20.9
2019-03-08T10:39:03.850Z,19.4
2019-03-08T10:40:06.042Z,23.4
2019-03-08T10:41:03.677Z,23.4
2019-03-08T10:42:03.446Z,23.4
2019-03-08T10:43:05.134Z,23.4
2019-03-08T10:44:15.763Z,22
2019-03-08T10:45:03.522Z,28.1
2019-03-08T10:46:03.428Z,20.9
2019-03-08T10:47:03.643Z,25.6
2019-03-08T10:48:03.379Z,18.4
2019-03-08T10:49:04.073Z,19.4
2019-03-08T10:50:03.639Z,24.5
2019-03-08T10:51:04.630Z,24.5
2019-03-08T10:52:03.355Z,22
2019-03-08T10:53:03.638Z,24.5
2019-03-08T10:54:03.733Z,22
2019-03-08T10:55:03.542Z,24.5
2019-03-08T10:56:03.404Z,22
2019-03-08T10:57:03.533Z,27
2019-03-08T10:58:03.607Z,23.4
2019-03-08T10:59:04.550Z,23.4
2019-03-08T11:00:03.683Z,20.9
2019-03-08T11:01:03.546Z,18.4
2019-03-08T11:02:03.191Z,18.4
2019-03-08T11:03:03.275Z,18.4
2019-03-08T11:04:03.039Z,18.4
2019-03-08T11:05:03.605Z,18.4
2019-03-08T11:06:03.502Z,18.4
2019-03-08T11:07:05.242Z,18.4
2019-03-08T11:08:03.817Z,18.4
2019-03-08T11:09:03.155Z,14.8
2019-03-08T11:10:03.148Z,22
2019-03-08T11:11:07.098Z,19.4
2019-03-08T11:12:03.832Z,23.4
2019-03-08T11:13:02.978Z,24.5
2019-03-08T11:14:03.121Z,19.4
2019-03-08T11:15:04.968Z,18.4
2019-03-08T11:16:04.015Z,22
2019-03-08T11:17:03.180Z,24.5
2019-03-08T11:18:03.875Z,25.6
2019-03-08T11:19:09.445Z,23.4
2019-03-08T11:20:03.752Z,27
2019-03-08T11:21:03.594Z,24.5
2019-03-08T11:22:03.686Z,19.4
2019-03-08T11:23:04.613Z,19.4
2019-03-08T11:24:03.602Z,17.3
2019-03-08T11:25:09.109Z,20.9
2019-03-08T11:26:03.746Z,23.4
2019-03-08T11:27:05.744Z,23.4
2019-03-08T11:28:03.852Z,14.8
2019-03-08T11:29:03.522Z,15.8
2019-03-08T11:30:03.317Z,17.3
2019-03-08T11:31:04.779Z,23.4
2019-03-08T11:32:03.505Z,23.4
2019-03-08T11:33:03.532Z,19.4
2019-03-08T11:34:03.373Z,19.4
2019-03-08T11:35:03.388Z,19.4
2019-03-08T11:36:03.435Z,22
2019-03-08T11:37:04.650Z,19.4
2019-03-08T11:38:03.339Z,17.3
2019-03-08T11:39:04.408Z,17.3
2019-03-08T11:40:03.372Z,24.5
2019-03-08T11:41:03.331Z,22
2019-03-08T11:42:03.213Z,17.3
2019-03-08T11:43:03.047Z,17.3
2019-03-08T11:44:03.245Z,18.4
2019-03-08T11:45:03.394Z,24.5
2019-03-08T11:46:02.995Z,18.4
2019-03-08T11:47:04.493Z,27
2019-03-08T11:48:02.902Z,24.5
2019-03-08T11:49:03.175Z,19.4
2019-03-08T11:50:03.631Z,20.9
2019-03-08T11:51:03.742Z,20.9
2019-03-08T11:52:03.860Z,23.4
2019-03-08T11:53:03.636Z,22
2019-03-08T11:54:03.787Z,22
2019-03-08T11:55:03.941Z,22
2019-03-08T11:56:03.171Z,17.3
2019-03-08T11:57:03.067Z,17.3
2019-03-08T11:58:03.786Z,22
2019-03-08T11:59:02.815Z,23.4
2019-03-08T12:00:03.796Z,17.3
2019-03-08T12:01:02.970Z,17.3
2019-03-08T12:02:06.049Z,24.5
2019-03-08T12:03:03.155Z,23.4
2019-03-08T12:04:03.709Z,23.4
2019-03-08T12:05:02.860Z,30.6
2019-03-08T12:06:03.667Z,27
2019-03-08T12:07:03.873Z,24.5
2019-03-08T12:08:03.725Z,23.4
2019-03-08T12:09:03.627Z,14.8
2019-03-08T12:10:03.840Z,17.3
2019-03-08T12:11:03.818Z,22
2019-03-08T12:12:04.326Z,20.9
2019-03-08T12:13:03.816Z,25.6
2019-03-08T12:14:03.970Z,24.5
2019-03-08T12:15:03.619Z,25.6
2019-03-08T12:16:03.794Z,24.5
2019-03-08T12:17:03.506Z,19.4
2019-03-08T12:18:03.540Z,22
2019-03-08T12:19:03.698Z,20.9
2019-03-08T12:20:03.953Z,24.5
2019-03-08T12:21:03.337Z,27
2019-03-08T12:22:03.487Z,27
2019-03-08T12:23:03.422Z,23.4
2019-03-08T12:24:03.532Z,24.5
2019-03-08T12:25:03.385Z,22
2019-03-08T12:26:03.370Z,27
2019-03-08T12:27:05.084Z,28.1
2019-03-08T12:28:04.528Z,20.9
2019-03-08T12:29:04.031Z,22
2019-03-08T12:30:05.111Z,23.4
2019-03-08T12:31:03.333Z,23.4
2019-03-08T12:32:03.047Z,20.9
2019-03-08T12:33:02.895Z,24.5
2019-03-08T12:34:03.952Z,24.5
2019-03-08T12:35:03.141Z,24.5
2019-03-08T12:36:06.108Z,24.5
2019-03-08T12:37:03.046Z,19.4
2019-03-08T12:38:03.408Z,27
2019-03-08T12:39:03.049Z,24.5
2019-03-08T12:40:03.203Z,24.5
2019-03-08T12:41:04.004Z,24.5
2019-03-08T12:42:03.029Z,19.4
2019-03-08T12:43:08.789Z,22
2019-03-08T12:44:05.044Z,25.6
2019-03-08T12:45:03.890Z,24.5
2019-03-08T12:46:03.790Z,19.4
2019-03-08T12:47:03.698Z,19.4
2019-03-08T12:48:03.829Z,22
2019-03-08T12:49:03.809Z,19.4
2019-03-08T12:50:03.909Z,20.9
2019-03-08T12:51:03.994Z,20.9
2019-03-08T12:52:04.766Z,27
2019-03-08T12:53:03.576Z,22
2019-03-08T12:54:03.514Z,25.6
2019-03-08T12:55:03.642Z,25.6
2019-03-08T12:56:03.470Z,19.4
2019-03-08T12:57:03.588Z,18.4
2019-03-08T12:58:03.522Z,22
2019-03-08T12:59:03.611Z,23.4
2019-03-08T13:00:03.956Z,14.8
2019-03-08T13:01:03.592Z,17.3
2019-03-08T13:02:03.763Z,17.3
2019-03-08T13:03:03.834Z,17.3
2019-03-08T13:04:03.308Z,17.3
2019-03-08T13:05:03.552Z,17.3
2019-03-08T13:06:03.340Z,17.3
2019-03-08T13:07:03.417Z,17.3
2019-03-08T13:08:03.595Z,17.3
2019-03-08T13:09:03.816Z,18.4
2019-03-08T13:10:03.686Z,17.3
2019-03-08T13:11:03.529Z,15.8
2019-03-08T13:12:03.457Z,18.4
2019-03-08T13:13:03.317Z,15.8
2019-03-08T13:14:03.315Z,17.3
2019-03-08T13:15:03.337Z,15.8
2019-03-08T13:16:03.273Z,17.3
2019-03-08T13:17:03.285Z,15.8
2019-03-08T13:18:03.218Z,13.3
2019-03-08T13:19:03.107Z,15.8
2019-03-08T13:20:02.410Z,18.4
2019-03-08T13:21:03.313Z,17.3
2019-03-08T13:22:03.883Z,17.3
2019-03-08T13:23:03.049Z,15.8
2019-03-08T13:24:03.162Z,27
2019-03-08T13:25:03.186Z,24.5
2019-03-08T13:26:03.462Z,18.4
2019-03-08T13:27:03.987Z,20.9
2019-03-08T13:28:03.706Z,12.2
2019-03-08T13:29:03.822Z,20.9
2019-03-08T13:30:03.967Z,24.5
2019-03-08T13:31:03.936Z,19.4
2019-03-08T13:32:04.011Z,17.3
2019-03-08T13:33:03.811Z,24.5
2019-03-08T13:34:03.792Z,18.4
2019-03-08T13:35:03.906Z,22
2019-03-08T13:36:03.751Z,18.4
2019-03-08T13:37:03.512Z,18.4
2019-03-08T13:38:03.584Z,17.3
2019-03-08T13:39:03.427Z,17.3
2019-03-08T13:40:04.476Z,17.3
2019-03-08T13:41:03.264Z,15.8
2019-03-08T13:42:03.627Z,17.3